createdAt,value
2018-10-17T00:00:20.534Z,42.10
2018-10-17T00:02:54.422Z,44.40
2018-10-17T00:05:27.601Z,41.77
2018-10-17T00:08:00.741Z,33.30
2018-10-17T00:10:34.757Z,35.75
2018-10-17T00:13:08.046Z,38.30
2018-10-17T00:15:41.354Z,40.40
2018-10-17T00:18:15.195Z,38.23
2018-10-17T00:20:48.352Z,35.83
2018-10-17T00:23:22.446Z,37.75
2018-10-17T00:25:55.605Z,41.18
2018-10-17T00:28:29.279Z,32.15
2018-10-17T00:31:02.819Z,32.98
2018-10-17T00:33:35.890Z,40.05
2018-10-17T00:36:09.301Z,37.15
2018-10-17T00:38:42.543Z,40.05
2018-10-17T00:41:15.754Z,39.08
2018-10-17T00:43:49.698Z,33.10
2018-10-17T00:46:22.951Z,29.15
2018-10-17T00:48:56.165Z,39.98
2018-10-17T00:51:30.130Z,39.45
2018-10-17T00:54:03.355Z,39.20
2018-10-17T00:56:36.688Z,37.80
2018-10-17T00:59:11.853Z,40.88
2018-10-17T01:01:45.090Z,38.10
2018-10-17T01:04:18.542Z,37.70
2018-10-17T01:06:51.786Z,31.87
2018-10-17T01:09:25.089Z,33.28
2018-10-17T01:11:58.323Z,26.97
2018-10-17T01:14:32.261Z,37.55
2018-10-17T01:17:05.502Z,35.90
2018-10-17T01:19:38.742Z,38.08
2018-10-17T01:22:12.475Z,31.17
2018-10-17T01:24:45.851Z,27.55
2018-10-17T01:27:19.144Z,43.35
2018-10-17T01:29:52.230Z,41.30
2018-10-17T01:32:25.622Z,38.10
2018-10-17T01:34:58.918Z,35.78
2018-10-17T01:37:31.988Z,38.53
2018-10-17T01:40:05.909Z,44.15
2018-10-17T01:42:39.313Z,35.13
2018-10-17T01:45:12.790Z,31.65
2018-10-17T01:47:49.730Z,35.25
2018-10-17T01:50:25.819Z,34.50
2018-10-17T01:52:59.515Z,31.55
2018-10-17T01:55:32.708Z,28.00
2018-10-17T01:58:05.919Z,26.60
2018-10-17T02:00:39.148Z,30.75
2018-10-17T02:03:12.523Z,27.93
2018-10-17T02:05:45.696Z,32.48
2018-10-17T02:08:18.825Z,36.60
2018-10-17T02:10:52.953Z,32.20
2018-10-17T02:13:26.183Z,30.48
2018-10-17T02:15:59.385Z,30.80
2018-10-17T02:18:32.677Z,33.48
2018-10-17T02:21:06.506Z,30.02
2018-10-17T02:23:39.962Z,33.58
2018-10-17T02:26:13.255Z,29.55
2018-10-17T02:28:46.867Z,26.90
2018-10-17T02:31:20.170Z,28.80
2018-10-17T02:33:54.176Z,32.90
2018-10-17T02:36:27.338Z,38.35
2018-10-17T02:39:00.688Z,36.23
2018-10-17T02:41:34.056Z,34.53
2018-10-17T02:44:07.545Z,40.75
2018-10-17T02:46:40.666Z,40.80
2018-10-17T02:49:14.015Z,46.37
2018-10-17T02:51:47.160Z,46.13
2018-10-17T02:54:20.549Z,33.45
2018-10-17T02:56:53.864Z,32.25
2018-10-17T02:59:27.174Z,33.98
2018-10-17T03:02:00.379Z,27.70
2018-10-17T03:04:33.622Z,29.20
2018-10-17T03:07:06.827Z,29.72
2018-10-17T03:09:40.087Z,26.75
2018-10-17T03:12:13.319Z,38.85
2018-10-17T03:14:46.926Z,32.88
2018-10-17T03:17:20.222Z,29.50
2018-10-17T03:19:53.383Z,33.02
2018-10-17T03:22:26.688Z,27.90
2018-10-17T03:24:59.939Z,30.50
2018-10-17T03:27:33.328Z,32.42
2018-10-17T03:30:06.610Z,30.97
2018-10-17T03:32:39.820Z,29.80
2018-10-17T03:35:13.220Z,35.48
2018-10-17T03:37:47.133Z,34.67
2018-10-17T03:40:20.403Z,37.25
2018-10-17T03:42:54.316Z,32.58
2018-10-17T03:45:27.538Z,27.35
2018-10-17T03:48:00.946Z,30.45
2018-10-17T03:50:34.113Z,32.40
2018-10-17T03:53:07.282Z,36.58
2018-10-17T03:55:40.618Z,30.90
2018-10-17T03:58:14.029Z,40.92
2018-10-17T04:00:47.297Z,34.95
2018-10-17T04:03:20.391Z,41.92
2018-10-17T04:05:53.872Z,34.75
2018-10-17T04:08:27.193Z,29.63
2018-10-17T04:11:00.602Z,30.70
2018-10-17T04:13:33.664Z,37.28
2018-10-17T04:16:07.025Z,31.90
2018-10-17T04:18:40.346Z,31.07
2018-10-17T04:21:13.580Z,30.25
2018-10-17T04:23:46.882Z,34.33
2018-10-17T04:26:20.120Z,40.35
2018-10-17T04:28:53.413Z,40.05
2018-10-17T04:31:26.647Z,34.90
2018-10-17T04:34:00.028Z,35.30
2018-10-17T04:36:33.116Z,39.88
2018-10-17T04:39:07.678Z,34.70
2018-10-17T04:41:41.787Z,39.65
2018-10-17T04:44:14.986Z,32.35
2018-10-17T04:46:49.068Z,35.65
2018-10-17T04:49:22.339Z,32.48
2018-10-17T04:51:55.556Z,38.80
2018-10-17T04:54:28.686Z,34.92
2018-10-17T04:57:01.855Z,50.00
2018-10-17T04:59:35.152Z,35.98
2018-10-17T05:02:08.285Z,49.18
2018-10-17T05:04:41.714Z,56.02
2018-10-17T05:07:15.399Z,46.60
2018-10-17T05:09:48.557Z,47.20
2018-10-17T05:12:21.778Z,60.92
2018-10-17T05:14:55.132Z,47.03
2018-10-17T05:17:28.526Z,48.25
2018-10-17T05:20:01.736Z,47.67
2018-10-17T05:22:35.012Z,40.85
2018-10-17T05:25:08.621Z,47.53
2018-10-17T05:27:42.444Z,48.38
2018-10-17T05:30:15.815Z,42.80
2018-10-17T05:32:49.078Z,40.52
2018-10-17T05:35:22.310Z,32.83
2018-10-17T05:37:55.624Z,47.17
2018-10-17T05:40:28.823Z,50.65
2018-10-17T05:43:02.268Z,59.08
2018-10-17T05:45:35.503Z,62.88
2018-10-17T05:48:08.814Z,58.65
2018-10-17T05:50:42.069Z,59.75
2018-10-17T05:53:15.349Z,65.25
2018-10-17T05:55:49.246Z,61.90
2018-10-17T05:58:22.477Z,63.00
2018-10-17T06:00:55.739Z,54.25
2018-10-17T06:03:29.698Z,47.23
2018-10-17T06:06:02.985Z,52.03
2018-10-17T06:08:36.815Z,60.43
2018-10-17T06:11:10.992Z,56.70
2018-10-17T06:13:44.414Z,47.13
2018-10-17T06:16:17.651Z,57.73
2018-10-17T06:18:51.064Z,49.93
2018-10-17T06:21:24.410Z,50.65
2018-10-17T06:23:57.714Z,45.65
2018-10-17T06:26:31.651Z,46.95
2018-10-17T06:29:05.049Z,55.12
2018-10-17T06:31:38.350Z,45.20
2018-10-17T06:34:11.719Z,47.10
2018-10-17T06:36:44.949Z,42.73
2018-10-17T06:39:18.454Z,49.20
2018-10-17T06:41:51.746Z,44.67
2018-10-17T06:44:25.040Z,40.50
2018-10-17T06:46:58.348Z,41.25
2018-10-17T06:49:31.528Z,49.48
2018-10-17T06:52:04.917Z,47.67
2018-10-17T06:54:38.316Z,51.15
2018-10-17T06:57:11.656Z,50.52
2018-10-17T06:59:46.371Z,41.95
2018-10-17T07:02:20.246Z,46.70
2018-10-17T07:04:53.721Z,46.02
2018-10-17T07:07:26.923Z,49.30
2018-10-17T07:10:00.159Z,47.13
2018-10-17T07:12:33.309Z,41.65
2018-10-17T07:15:06.761Z,41.80
2018-10-17T07:17:39.980Z,45.88
2018-10-17T07:20:13.292Z,48.87
2018-10-17T07:22:46.738Z,41.63
2018-10-17T07:25:20.154Z,51.58
2018-10-17T07:27:53.453Z,49.77
2018-10-17T07:30:26.723Z,48.90
2018-10-17T07:33:00.379Z,51.20
2018-10-17T07:35:35.764Z,53.33
2018-10-17T07:38:08.972Z,58.35
2018-10-17T07:40:43.134Z,47.62
2018-10-17T07:43:16.575Z,47.95
2018-10-17T07:45:51.483Z,52.40
2018-10-17T07:48:25.226Z,50.67
2018-10-17T07:50:58.582Z,53.65
2018-10-17T07:53:31.852Z,53.75
2018-10-17T07:56:06.119Z,48.17
2018-10-17T07:58:39.475Z,50.88
2018-10-17T08:01:12.672Z,57.50
2018-10-17T08:03:46.050Z,55.95
2018-10-17T08:06:19.276Z,64.22
2018-10-17T08:08:52.836Z,54.67
2018-10-17T08:11:26.397Z,48.42
2018-10-17T08:14:00.001Z,59.05
2018-10-17T08:16:33.363Z,58.13
2018-10-17T08:19:06.567Z,56.80
2018-10-17T08:21:40.055Z,67.70
2018-10-17T08:24:13.393Z,50.28
2018-10-17T08:26:46.552Z,54.50
2018-10-17T08:29:19.985Z,57.60
2018-10-17T08:31:53.310Z,57.15
2018-10-17T08:34:26.857Z,50.15
2018-10-17T08:37:00.343Z,51.65
2018-10-17T08:39:33.425Z,42.38
2018-10-17T08:42:06.786Z,53.65
2018-10-17T08:44:40.226Z,53.68
2018-10-17T08:47:13.717Z,46.05
2018-10-17T08:49:47.373Z,54.65
2018-10-17T08:52:20.867Z,48.55
2018-10-17T08:54:54.632Z,48.20
2018-10-17T08:57:28.393Z,54.53
2018-10-17T09:00:02.009Z,50.60
2018-10-17T09:02:35.713Z,53.05
2018-10-17T09:05:09.157Z,47.48
2018-10-17T09:07:42.658Z,64.37
2018-10-17T09:10:16.294Z,48.23
2018-10-17T09:12:49.790Z,56.10
2018-10-17T09:15:23.100Z,59.55
2018-10-17T09:17:56.353Z,51.18
2018-10-17T09:20:30.007Z,52.40
2018-10-17T09:23:03.488Z,65.35
2018-10-17T09:25:37.108Z,56.20
2018-10-17T09:28:10.665Z,59.75
2018-10-17T09:30:43.929Z,61.58
2018-10-17T09:33:18.854Z,52.75
2018-10-17T09:35:53.666Z,59.58
2018-10-17T09:38:28.734Z,47.33
2018-10-17T09:41:04.297Z,47.43
2018-10-17T09:43:39.074Z,43.42
2018-10-17T09:46:14.733Z,32.98
2018-10-17T09:48:49.373Z,41.85
2018-10-17T09:51:23.428Z,43.10
2018-10-17T09:53:56.983Z,41.58
2018-10-17T09:56:30.797Z,37.75
2018-10-17T09:59:04.416Z,38.53
2018-10-17T10:01:43.891Z,31.90
2018-10-17T10:04:17.541Z,35.55
2018-10-17T10:06:51.218Z,38.70
2018-10-17T10:09:25.057Z,39.08
2018-10-17T10:11:58.267Z,38.42
2018-10-17T10:14:31.613Z,36.80
2018-10-17T10:17:05.327Z,35.73
2018-10-17T10:19:38.746Z,50.25
2018-10-17T10:22:12.055Z,52.73
2018-10-17T10:24:45.415Z,44.95
2018-10-17T10:27:18.858Z,57.70
2018-10-17T10:29:52.398Z,60.78
2018-10-17T10:32:25.885Z,57.00
2018-10-17T10:34:59.635Z,54.33
2018-10-17T10:37:33.669Z,52.17
2018-10-17T10:40:07.095Z,53.92
2018-10-17T10:42:40.455Z,50.95
2018-10-17T10:45:13.745Z,56.00
2018-10-17T10:47:46.950Z,55.05
2018-10-17T10:50:20.342Z,49.50
2018-10-17T10:52:53.545Z,56.53
2018-10-17T10:55:26.742Z,51.55
2018-10-17T10:58:00.063Z,53.40
2018-10-17T11:00:33.787Z,42.93
2018-10-17T11:03:07.140Z,37.40
2018-10-17T11:05:40.627Z,39.23
2018-10-17T11:08:13.815Z,45.60
2018-10-17T11:10:47.125Z,40.10
2018-10-17T11:13:20.590Z,43.13
2018-10-17T11:15:53.815Z,45.65
2018-10-17T11:18:27.316Z,46.18
2018-10-17T11:21:00.808Z,43.13
2018-10-17T11:23:34.204Z,39.78
2018-10-17T11:26:07.466Z,46.60
2018-10-17T11:28:40.820Z,51.45
2018-10-17T11:31:14.189Z,43.98
2018-10-17T11:33:47.388Z,47.58
2018-10-17T11:36:20.595Z,45.17
2018-10-17T11:38:54.210Z,47.45
2018-10-17T11:41:27.495Z,41.30
2018-10-17T11:44:00.881Z,38.95
2018-10-17T11:46:34.134Z,51.55
2018-10-17T11:49:07.333Z,38.25
2018-10-17T11:51:40.592Z,36.53
2018-10-17T11:54:14.607Z,40.12
2018-10-17T11:56:48.211Z,41.63
2018-10-17T11:59:21.846Z,47.45
2018-10-17T12:01:55.192Z,41.02
2018-10-17T12:04:28.806Z,44.50
2018-10-17T12:07:02.698Z,45.38
2018-10-17T12:09:37.499Z,40.63
2018-10-17T12:12:10.973Z,37.00
2018-10-17T12:14:45.278Z,42.58
2018-10-17T12:17:20.175Z,38.58
2018-10-17T12:19:54.871Z,39.58
2018-10-17T12:22:31.216Z,39.53
2018-10-17T12:25:05.712Z,29.45
2018-10-17T12:27:41.723Z,38.65
2018-10-17T12:30:16.297Z,35.50
2018-10-17T12:32:50.260Z,36.48
2018-10-17T12:35:25.069Z,35.15
2018-10-17T12:37:58.949Z,35.13
2018-10-17T12:40:33.742Z,35.78
2018-10-17T12:43:08.523Z,40.45
2018-10-17T12:45:42.191Z,38.95
2018-10-17T12:48:15.662Z,46.50
2018-10-17T12:50:49.633Z,38.20
2018-10-17T12:53:23.319Z,33.23
2018-10-17T12:55:57.230Z,35.23
2018-10-17T12:58:31.035Z,29.63
2018-10-17T13:01:05.330Z,48.68
2018-10-17T13:03:40.113Z,37.75
2018-10-17T13:06:13.763Z,36.98
2018-10-17T13:08:47.919Z,32.75
2018-10-17T13:11:21.977Z,41.73
2018-10-17T13:13:55.315Z,33.60
2018-10-17T13:16:28.527Z,35.60
2018-10-17T13:19:02.350Z,37.80
2018-10-17T13:21:35.867Z,36.30
2018-10-17T13:24:09.337Z,44.38
2018-10-17T13:26:43.392Z,39.25
2018-10-17T13:29:16.784Z,39.18
2018-10-17T13:31:49.947Z,42.80
2018-10-17T13:34:23.910Z,37.20
2018-10-17T13:36:57.973Z,46.42
2018-10-17T13:39:31.367Z,35.83
2018-10-17T13:42:04.875Z,36.80
2018-10-17T13:44:38.603Z,39.08
2018-10-17T13:47:12.355Z,34.48
2018-10-17T13:49:46.013Z,34.13
2018-10-17T13:52:19.736Z,37.15
2018-10-17T13:54:53.916Z,43.78
2018-10-17T13:57:27.855Z,36.65
2018-10-17T14:00:01.564Z,30.12
2018-10-17T14:02:35.576Z,33.78
2018-10-17T14:05:10.010Z,33.60
2018-10-17T14:07:44.467Z,30.17
2018-10-17T14:10:18.614Z,42.13
2018-10-17T14:12:52.378Z,38.33
2018-10-17T14:15:26.492Z,35.92
2018-10-17T14:18:01.055Z,35.65
2018-10-17T14:20:35.112Z,27.45
2018-10-17T14:23:09.219Z,30.02
2018-10-17T14:25:43.213Z,35.88
2018-10-17T14:28:16.836Z,26.60
2018-10-17T14:30:50.906Z,24.15
2018-10-17T14:33:24.789Z,25.00
2018-10-17T14:35:58.827Z,30.92
2018-10-17T14:38:32.418Z,31.95
2018-10-17T14:41:06.064Z,30.20
2018-10-17T14:43:41.120Z,29.25
2018-10-17T14:46:15.477Z,33.42
2018-10-17T14:48:49.132Z,28.60
2018-10-17T14:51:22.898Z,28.80
2018-10-17T14:53:56.817Z,26.27
2018-10-17T14:56:30.597Z,25.68
2018-10-17T14:59:04.473Z,25.12
2018-10-17T15:01:38.236Z,31.12
2018-10-17T15:04:12.180Z,26.97
2018-10-17T15:06:46.401Z,25.85
2018-10-17T15:09:20.229Z,25.55
2018-10-17T15:11:53.996Z,31.00
2018-10-17T15:14:27.401Z,29.55
2018-10-17T15:17:01.808Z,31.70
2018-10-17T15:19:36.217Z,31.68
2018-10-17T15:22:10.097Z,28.38
2018-10-17T15:24:44.277Z,30.02
2018-10-17T15:27:17.851Z,30.82
2018-10-17T15:29:53.679Z,29.98
2018-10-17T15:32:27.970Z,28.65
2018-10-17T15:35:02.326Z,30.12
2018-10-17T15:37:35.697Z,28.67
2018-10-17T15:40:09.593Z,29.67
2018-10-17T15:42:42.890Z,37.05
2018-10-17T15:45:16.186Z,31.15
2018-10-17T15:47:49.339Z,31.62
2018-10-17T15:50:23.695Z,33.88
2018-10-17T15:52:57.390Z,34.08
2018-10-17T15:55:30.758Z,28.12
2018-10-17T15:58:04.675Z,31.23
2018-10-17T16:00:38.756Z,30.62
2018-10-17T16:03:12.479Z,31.35
2018-10-17T16:05:46.087Z,29.90
2018-10-17T16:08:20.409Z,31.65
2018-10-17T16:10:54.111Z,30.43
2018-10-17T16:13:27.563Z,32.63
2018-10-17T16:16:00.815Z,29.42
2018-10-17T16:18:34.270Z,32.33
2018-10-17T16:21:07.840Z,33.58
2018-10-17T16:23:41.471Z,36.88
2018-10-17T16:26:14.808Z,32.42
2018-10-17T16:28:47.953Z,30.32
2018-10-17T16:31:21.151Z,33.78
2018-10-17T16:33:54.659Z,36.35
2018-10-17T16:36:28.170Z,39.25
2018-10-17T16:39:01.661Z,34.08
2018-10-17T16:41:36.041Z,35.10
2018-10-17T16:44:09.581Z,47.48
2018-10-17T16:46:43.443Z,37.45
2018-10-17T16:49:17.041Z,38.45
2018-10-17T16:51:53.325Z,44.85
2018-10-17T16:54:28.466Z,43.52
2018-10-17T16:57:02.531Z,46.60
2018-10-17T16:59:36.426Z,53.60
2018-10-17T17:02:11.703Z,46.37
2018-10-17T17:04:45.842Z,41.65
2018-10-17T17:07:19.160Z,51.85
2018-10-17T17:09:52.904Z,41.58
2018-10-17T17:12:26.323Z,38.17
2018-10-17T17:14:59.816Z,41.30
2018-10-17T17:17:33.929Z,38.08
2018-10-17T17:20:08.605Z,46.60
2018-10-17T17:22:42.520Z,38.00
2018-10-17T17:25:15.808Z,50.85
2018-10-17T17:27:49.624Z,52.58
2018-10-17T17:30:23.036Z,45.60
2018-10-17T17:32:56.362Z,41.80
2018-10-17T17:35:29.657Z,51.73
2018-10-17T17:38:03.171Z,47.17
2018-10-17T17:40:36.579Z,61.02
2018-10-17T17:43:10.737Z,58.05
2018-10-17T17:45:44.434Z,54.80
2018-10-17T17:48:17.675Z,56.85
2018-10-17T17:50:51.034Z,52.30
2018-10-17T17:53:25.730Z,56.20
2018-10-17T17:55:59.595Z,53.42
2018-10-17T17:58:33.039Z,56.80
2018-10-17T18:01:06.273Z,51.95
2018-10-17T18:03:40.059Z,50.25
2018-10-17T18:06:13.394Z,51.88
2018-10-17T18:08:46.640Z,55.63
2018-10-17T18:11:20.971Z,64.42
2018-10-17T18:13:55.610Z,55.95
2018-10-17T18:16:28.971Z,57.00
2018-10-17T18:19:02.302Z,62.48
2018-10-17T18:21:35.588Z,57.03
2018-10-17T18:24:10.003Z,48.42
2018-10-17T18:26:43.642Z,61.75
2018-10-17T18:29:17.677Z,52.85
2018-10-17T18:31:51.635Z,50.75
2018-10-17T18:34:25.089Z,49.88
2018-10-17T18:36:59.905Z,55.05
2018-10-17T18:39:34.113Z,53.95
2018-10-17T18:42:08.572Z,47.13
2018-10-17T18:44:41.887Z,57.55
2018-10-17T18:47:15.372Z,51.40
2018-10-17T18:49:49.166Z,48.70
2018-10-17T18:52:24.387Z,47.27
2018-10-17T18:54:57.904Z,51.02
2018-10-17T18:57:31.720Z,45.67
2018-10-17T19:00:07.379Z,51.68
2018-10-17T19:02:40.639Z,47.65
2018-10-17T19:05:13.960Z,42.27
2018-10-17T19:07:47.261Z,60.92
2018-10-17T19:10:20.978Z,57.03
2018-10-17T19:12:54.976Z,56.18
2018-10-17T19:15:29.037Z,60.63
2018-10-17T19:18:03.048Z,56.45
2018-10-17T19:20:36.963Z,67.75
2018-10-17T19:23:11.006Z,58.05
2018-10-17T19:25:45.140Z,60.83
2018-10-17T19:28:19.130Z,51.75
2018-10-17T19:30:52.424Z,63.13
2018-10-17T19:33:26.303Z,64.07
2018-10-17T19:35:59.619Z,53.38
2018-10-17T19:38:33.437Z,62.67
2018-10-17T19:41:08.224Z,50.63
2018-10-17T19:43:42.936Z,68.40
2018-10-17T19:46:17.549Z,60.45
2018-10-17T19:48:51.902Z,53.13
2018-10-17T19:51:26.046Z,53.65
2018-10-17T19:53:59.946Z,47.38
2018-10-17T19:56:34.159Z,46.35
2018-10-17T19:59:07.932Z,46.33
2018-10-17T20:01:41.500Z,41.80
2018-10-17T20:04:14.859Z,53.58
2018-10-17T20:06:48.388Z,51.83
2018-10-17T20:09:23.364Z,41.05
2018-10-17T20:11:57.418Z,60.15
2018-10-17T20:14:31.164Z,59.05
2018-10-17T20:17:05.976Z,53.10
2018-10-17T20:19:39.277Z,46.45
2018-10-17T20:22:12.448Z,56.48
2018-10-17T20:24:45.630Z,62.13
2018-10-17T20:27:19.222Z,53.05
2018-10-17T20:29:52.922Z,63.58
2018-10-17T20:32:26.112Z,65.83
2018-10-17T20:34:59.949Z,56.23
2018-10-17T20:37:33.261Z,54.60
2018-10-17T20:40:07.006Z,50.15
2018-10-17T20:42:40.270Z,57.80
2018-10-17T20:45:13.585Z,52.73
2018-10-17T20:47:46.903Z,48.10
2018-10-17T20:50:20.275Z,58.70
2018-10-17T20:52:53.502Z,71.25
2018-10-17T20:55:26.761Z,61.53
2018-10-17T20:58:00.818Z,48.35
2018-10-17T21:00:34.269Z,53.52
2018-10-17T21:03:07.730Z,62.45
2018-10-17T21:05:41.102Z,47.53
2018-10-17T21:08:14.471Z,49.40
2018-10-17T21:10:47.656Z,53.55
2018-10-17T21:13:21.055Z,59.50
2018-10-17T21:15:54.574Z,52.30
2018-10-17T21:18:28.397Z,55.35
2018-10-17T21:21:02.065Z,47.03
2018-10-17T21:23:35.348Z,43.75
2018-10-17T21:26:08.947Z,46.42
2018-10-17T21:28:42.729Z,59.67
2018-10-17T21:31:16.150Z,51.85
2018-10-17T21:33:49.642Z,59.98
2018-10-17T21:36:24.533Z,50.17
2018-10-17T21:38:57.978Z,52.10
2018-10-17T21:41:31.961Z,67.90
2018-10-17T21:44:07.165Z,64.62
2018-10-17T21:46:40.860Z,63.35
2018-10-17T21:49:14.883Z,62.13
2018-10-17T21:51:49.078Z,68.67
2018-10-17T21:54:24.154Z,67.53
2018-10-17T21:56:57.655Z,65.40
2018-10-17T21:59:31.696Z,62.78
2018-10-17T22:02:05.876Z,57.98
2018-10-17T22:04:39.671Z,56.10
2018-10-17T22:07:13.725Z,63.98
2018-10-17T22:09:47.737Z,67.92
2018-10-17T22:12:21.756Z,69.05
2018-10-17T22:14:55.728Z,61.33
2018-10-17T22:17:29.860Z,61.80
2018-10-17T22:20:03.198Z,57.67
2018-10-17T22:22:36.665Z,53.45
2018-10-17T22:25:10.632Z,58.45
2018-10-17T22:27:44.025Z,64.75
2018-10-17T22:30:18.595Z,62.75
2018-10-17T22:32:52.303Z,61.75
2018-10-17T22:35:26.325Z,60.80
2018-10-17T22:38:00.284Z,64.53
2018-10-17T22:40:34.367Z,58.00
2018-10-17T22:43:08.550Z,60.67
2018-10-17T22:45:42.102Z,60.63
2018-10-17T22:48:15.237Z,57.05
2018-10-17T22:50:48.754Z,52.67
2018-10-17T22:53:24.334Z,73.60
2018-10-17T22:55:58.295Z,68.62
2018-10-17T22:58:32.275Z,64.62
2018-10-17T23:01:05.759Z,70.72
2018-10-17T23:03:40.347Z,73.33
2018-10-17T23:06:14.452Z,75.12
2018-10-17T23:08:48.024Z,68.07
2018-10-17T23:11:21.734Z,71.80
2018-10-17T23:13:55.562Z,74.50
2018-10-17T23:16:28.965Z,64.30
2018-10-17T23:19:02.450Z,70.22
2018-10-17T23:21:35.724Z,73.95
2018-10-17T23:24:09.129Z,69.65
2018-10-17T23:26:42.563Z,73.70
2018-10-17T23:29:16.262Z,73.57
2018-10-17T23:31:49.555Z,73.05
2018-10-17T23:34:22.917Z,77.25
2018-10-17T23:36:56.265Z,66.82
2018-10-17T23:39:29.833Z,74.58
2018-10-17T23:42:03.097Z,66.30
2018-10-17T23:44:36.500Z,69.55
2018-10-17T23:47:09.884Z,73.72
2018-10-17T23:49:43.469Z,73.37
2018-10-17T23:52:17.088Z,74.10
2018-10-17T23:54:50.410Z,71.00
2018-10-17T23:57:23.564Z,74.05
2018-10-17T23:59:56.837Z,58.00
